createdAt,value
2023-05-03T00:00:45.474Z,2.53
2023-05-03T00:03:13.558Z,2.47
2023-05-03T00:05:40.005Z,2.60
2023-05-03T00:08:06.425Z,2.80
2023-05-03T00:10:32.664Z,2.57
2023-05-03T00:12:58.970Z,2.37
2023-05-03T00:15:25.288Z,2.47
2023-05-03T00:17:51.738Z,2.50
2023-05-03T00:20:19.309Z,2.30
2023-05-03T00:22:45.675Z,2.67
2023-05-03T00:25:12.013Z,2.50
2023-05-03T00:27:38.545Z,2.53
2023-05-03T00:30:05.468Z,2.63
2023-05-03T00:32:32.021Z,2.53
2023-05-03T00:34:58.888Z,2.73
2023-05-03T00:37:25.738Z,2.60
2023-05-03T00:39:52.092Z,2.40
2023-05-03T00:42:18.349Z,2.70
2023-05-03T00:44:44.627Z,2.43
2023-05-03T00:47:11.264Z,2.93
2023-05-03T00:49:37.634Z,2.50
2023-05-03T00:52:03.904Z,3.00
2023-05-03T00:54:32.992Z,2.70
2023-05-03T00:56:59.497Z,3.47
2023-05-03T00:59:26.397Z,2.40
2023-05-03T01:01:53.233Z,2.70
2023-05-03T01:04:20.643Z,2.60
2023-05-03T01:07:05.200Z,2.87
2023-05-03T01:09:34.544Z,2.77
2023-05-03T01:12:03.902Z,2.77
2023-05-03T01:14:39.818Z,2.60
2023-05-03T01:17:11.636Z,2.63
2023-05-03T01:19:44.283Z,2.00
2023-05-03T01:22:17.135Z,2.53
2023-05-03T01:24:46.069Z,2.50
2023-05-03T01:33:34.215Z,2.40
2023-05-03T01:36:08.201Z,2.53
2023-05-03T01:38:36.802Z,2.43
2023-05-03T01:41:06.399Z,2.43
2023-05-03T01:43:33.532Z,2.30
2023-05-03T01:45:59.855Z,2.47
2023-05-03T01:48:26.099Z,2.23
2023-05-03T01:50:52.380Z,2.27
2023-05-03T01:53:18.680Z,2.40
2023-05-03T01:55:44.917Z,2.80
2023-05-03T01:58:12.089Z,2.83
2023-05-03T02:00:38.421Z,2.37
2023-05-03T02:03:04.854Z,2.90
2023-05-03T02:05:31.284Z,2.47
2023-05-03T02:07:57.778Z,2.43
2023-05-03T02:10:24.192Z,2.43
2023-05-03T02:12:50.790Z,2.63
2023-05-03T02:15:19.964Z,2.60
2023-05-03T02:17:47.328Z,2.57
2023-05-03T02:20:13.672Z,2.37
2023-05-03T02:22:39.946Z,2.40
2023-05-03T02:25:06.861Z,2.50
2023-05-03T02:27:33.173Z,2.67
2023-05-03T02:29:59.588Z,2.20
2023-05-03T02:32:25.990Z,2.40
2023-05-03T02:34:52.405Z,2.30
2023-05-03T02:37:18.773Z,2.40
2023-05-03T02:39:45.040Z,2.50
2023-05-03T02:42:11.318Z,2.53
2023-05-03T02:44:37.563Z,2.30
2023-05-03T02:47:03.838Z,2.60
2023-05-03T02:49:30.136Z,2.40
2023-05-03T02:51:56.894Z,2.90
2023-05-03T02:54:23.329Z,2.80
2023-05-03T02:56:49.749Z,2.90
2023-05-03T02:59:15.995Z,2.90
2023-05-03T03:01:42.279Z,2.33
2023-05-03T03:04:09.601Z,2.80
2023-05-03T03:06:36.205Z,2.47
2023-05-03T03:09:02.587Z,3.00
2023-05-03T03:11:28.843Z,2.70
2023-05-03T03:13:55.145Z,2.40
2023-05-03T03:16:21.518Z,2.93
2023-05-03T03:18:47.819Z,2.40
2023-05-03T03:21:14.078Z,2.80
2023-05-03T03:23:40.593Z,3.20
2023-05-03T03:26:06.887Z,2.67
2023-05-03T03:28:33.290Z,3.03
2023-05-03T03:30:59.679Z,2.57
2023-05-03T03:33:26.019Z,2.93
2023-05-03T03:35:52.986Z,2.93
2023-05-03T03:38:19.289Z,2.37
2023-05-03T03:40:45.746Z,2.50
2023-05-03T03:43:12.045Z,2.77
2023-05-03T03:45:38.290Z,2.57
2023-05-03T03:48:04.767Z,2.47
2023-05-03T03:50:31.133Z,2.40
2023-05-03T03:52:57.379Z,2.57
2023-05-03T03:55:24.583Z,2.93
2023-05-03T03:57:50.960Z,2.77
2023-05-03T04:00:17.686Z,3.07
2023-05-03T04:02:44.135Z,2.37
2023-05-03T04:05:10.613Z,2.33
2023-05-03T04:07:36.911Z,2.77
2023-05-03T04:10:03.526Z,2.47
2023-05-03T04:12:30.326Z,2.63
2023-05-03T04:14:57.207Z,2.50
2023-05-03T04:17:23.543Z,2.40
2023-05-03T04:19:49.875Z,2.90
2023-05-03T04:22:16.172Z,2.63
2023-05-03T04:24:43.038Z,2.77
2023-05-03T04:27:09.471Z,2.90
2023-05-03T04:29:36.901Z,2.57
2023-05-03T04:32:04.095Z,2.67
2023-05-03T04:34:31.135Z,2.90
2023-05-03T04:36:57.993Z,3.10
2023-05-03T04:39:24.668Z,2.97
2023-05-03T04:41:51.037Z,3.40
2023-05-03T04:44:17.600Z,3.30
2023-05-03T04:46:43.968Z,2.70
2023-05-03T04:49:10.355Z,2.60
2023-05-03T04:51:36.614Z,2.90
2023-05-03T04:54:02.852Z,2.93
2023-05-03T04:56:29.631Z,2.73
2023-05-03T04:58:55.941Z,3.33
2023-05-03T05:01:26.487Z,3.40
2023-05-03T05:03:53.529Z,3.20
2023-05-03T05:06:20.946Z,3.40
2023-05-03T05:08:47.265Z,3.00
2023-05-03T05:11:14.540Z,2.83
2023-05-03T05:13:40.870Z,3.40
2023-05-03T05:16:07.240Z,3.17
2023-05-03T05:18:34.787Z,3.20
2023-05-03T05:21:01.152Z,3.70
2023-05-03T05:23:27.858Z,3.10
2023-05-03T05:25:54.730Z,4.30
2023-05-03T05:28:21.009Z,3.77
2023-05-03T05:30:47.348Z,3.20
2023-05-03T05:33:13.640Z,3.40
2023-05-03T05:35:40.288Z,3.73
2023-05-03T05:38:07.365Z,3.50
2023-05-03T05:40:33.602Z,3.60
2023-05-03T05:42:59.857Z,3.70
2023-05-03T05:45:26.133Z,3.77
2023-05-03T05:47:52.382Z,3.73
2023-05-03T05:50:19.491Z,3.43
2023-05-03T05:52:46.181Z,3.20
2023-05-03T05:55:14.690Z,2.97
2023-05-03T05:57:41.006Z,2.90
2023-05-03T06:00:14.639Z,3.50
2023-05-03T06:02:41.669Z,3.30
2023-05-03T06:05:08.516Z,2.90
2023-05-03T06:07:34.983Z,2.37
2023-05-03T06:10:01.776Z,2.80
2023-05-03T06:12:28.301Z,2.63
2023-05-03T06:15:02.427Z,2.43
2023-05-03T06:17:29.343Z,2.43
2023-05-03T06:19:55.672Z,2.40
2023-05-03T06:22:22.347Z,2.50
2023-05-03T06:24:48.581Z,2.23
2023-05-03T06:27:14.820Z,3.00
2023-05-03T06:29:41.454Z,2.47
2023-05-03T06:32:07.772Z,2.80
2023-05-03T06:34:34.039Z,2.40
2023-05-03T06:37:00.352Z,2.23
2023-05-03T06:39:26.620Z,2.33
2023-05-03T06:41:53.041Z,3.50
2023-05-03T06:44:19.324Z,2.10
2023-05-03T06:46:45.688Z,2.47
2023-05-03T06:49:12.000Z,2.00
2023-05-03T06:51:38.279Z,1.87
2023-05-03T06:54:09.338Z,1.90
2023-05-03T06:56:35.863Z,1.67
2023-05-03T06:59:03.488Z,1.60
2023-05-03T07:01:30.761Z,2.13
2023-05-03T07:03:57.407Z,1.83
2023-05-03T07:06:24.197Z,1.80
2023-05-03T07:08:51.847Z,1.60
2023-05-03T07:11:18.924Z,1.50
2023-05-03T07:13:45.268Z,1.52
2023-05-03T07:16:11.531Z,1.70
2023-05-03T07:18:37.854Z,1.58
2023-05-03T07:21:07.373Z,1.60
2023-05-03T07:23:35.599Z,1.35
2023-05-03T07:26:01.905Z,1.40
2023-05-03T07:28:28.151Z,1.13
2023-05-03T07:30:54.384Z,1.77
2023-05-03T07:33:20.773Z,1.23
2023-05-03T07:35:47.544Z,1.52
2023-05-03T07:38:19.816Z,1.58
2023-05-03T07:40:46.090Z,1.55
2023-05-03T07:43:12.464Z,1.50
2023-05-03T07:45:38.944Z,1.30
2023-05-03T07:48:06.333Z,1.83
2023-05-03T07:50:32.678Z,1.38
2023-05-03T07:52:58.979Z,1.20
2023-05-03T07:55:26.785Z,1.70
2023-05-03T07:57:58.361Z,1.45
2023-05-03T08:00:25.097Z,1.40
2023-05-03T08:02:52.001Z,1.77
2023-05-03T08:05:18.564Z,1.58
2023-05-03T08:07:45.086Z,1.45
2023-05-03T08:10:11.432Z,2.10
2023-05-03T08:12:37.786Z,1.63
2023-05-03T08:15:06.972Z,1.60
2023-05-03T08:17:39.372Z,1.40
2023-05-03T08:20:07.510Z,1.60
2023-05-03T08:22:33.781Z,1.67
2023-05-03T08:25:01.155Z,1.58
2023-05-03T08:27:28.596Z,1.80
2023-05-03T08:29:54.845Z,1.80
2023-05-03T08:32:22.687Z,1.63
2023-05-03T08:34:49.157Z,1.97
2023-05-03T08:37:15.485Z,1.50
2023-05-03T08:39:41.796Z,1.60
2023-05-03T08:42:08.748Z,1.40
2023-05-03T08:44:43.151Z,1.80
2023-05-03T08:47:09.628Z,1.77
2023-05-03T08:49:36.515Z,1.60
2023-05-03T08:52:03.891Z,2.03
2023-05-03T08:54:30.215Z,1.70
2023-05-03T08:56:56.552Z,1.80
2023-05-03T08:59:24.696Z,1.70
2023-05-03T09:01:53.563Z,2.00
2023-05-03T09:04:21.804Z,1.90
2023-05-03T09:06:48.319Z,1.43
2023-05-03T09:09:16.071Z,1.50
2023-05-03T09:11:42.388Z,1.73
2023-05-03T09:14:08.656Z,1.50
2023-05-03T09:16:35.008Z,1.77
2023-05-03T09:19:06.238Z,1.60
2023-05-03T09:21:32.848Z,1.53
2023-05-03T09:23:59.369Z,1.40
2023-05-03T09:26:29.406Z,1.60
2023-05-03T09:28:56.559Z,1.40
2023-05-03T09:31:23.479Z,1.97
2023-05-03T09:33:49.990Z,2.03
2023-05-03T09:36:16.217Z,1.63
2023-05-03T09:38:42.734Z,1.50
2023-05-03T09:41:09.004Z,1.83
2023-05-03T09:43:37.969Z,1.50
2023-05-03T09:46:11.519Z,1.50
2023-05-03T09:48:38.465Z,1.67
2023-05-03T09:51:05.521Z,1.50
2023-05-03T09:53:32.262Z,1.53
2023-05-03T09:55:59.491Z,1.60
2023-05-03T09:58:27.797Z,1.70
2023-05-03T10:00:54.521Z,1.50
2023-05-03T10:03:30.769Z,2.50
2023-05-03T10:05:58.650Z,1.63
2023-05-03T10:08:27.735Z,1.47
2023-05-03T10:10:54.424Z,1.83
2023-05-03T10:13:21.934Z,1.70
2023-05-03T10:15:51.898Z,1.50
2023-05-03T10:18:20.883Z,1.50
2023-05-03T10:20:54.704Z,1.60
2023-05-03T10:23:20.999Z,1.50
2023-05-03T10:26:13.378Z,1.50
2023-05-03T10:28:39.847Z,1.73
2023-05-03T10:31:06.127Z,1.73
2023-05-03T10:33:34.937Z,1.80
2023-05-03T10:36:05.207Z,1.57
2023-05-03T10:38:34.560Z,1.60
2023-05-03T10:41:03.641Z,1.77
2023-05-03T10:43:30.427Z,1.50
2023-05-03T10:45:57.266Z,2.00
2023-05-03T10:48:23.674Z,1.50
2023-05-03T10:50:52.168Z,1.70
2023-05-03T10:53:37.025Z,2.10
2023-05-03T10:56:10.717Z,1.83
2023-05-03T10:58:38.810Z,1.90
2023-05-03T11:01:06.085Z,1.90
2023-05-03T11:03:43.321Z,2.00
2023-05-03T11:06:09.644Z,1.80
2023-05-03T11:08:48.391Z,1.80
2023-05-03T11:11:15.448Z,1.83
2023-05-03T11:13:41.726Z,1.80
2023-05-03T11:16:08.163Z,1.70
2023-05-03T11:18:34.460Z,1.73
2023-05-03T11:21:01.184Z,2.00
2023-05-03T11:23:28.550Z,1.70
2023-05-03T11:25:55.093Z,2.00
2023-05-03T11:28:21.439Z,2.03
2023-05-03T11:30:47.763Z,2.23
2023-05-03T11:33:14.095Z,1.83
2023-05-03T11:35:40.547Z,1.90
2023-05-03T11:38:07.108Z,2.07
2023-05-03T11:40:33.450Z,2.13
2023-05-03T11:43:00.076Z,1.90
2023-05-03T11:45:29.016Z,1.87
2023-05-03T11:47:55.662Z,2.10
2023-05-03T11:50:43.451Z,2.30
2023-05-03T11:53:11.150Z,2.37
2023-05-03T11:55:46.379Z,2.00
2023-05-03T11:58:13.841Z,2.47
2023-05-03T12:00:42.897Z,2.10
2023-05-03T12:03:10.786Z,2.23
2023-05-03T12:05:37.511Z,2.30
2023-05-03T12:08:05.230Z,2.13
2023-05-03T12:10:33.548Z,2.00
2023-05-03T12:13:01.174Z,1.70
2023-05-03T12:15:36.889Z,2.03
2023-05-03T12:18:09.496Z,2.07
2023-05-03T12:23:09.765Z,1.60
2023-05-03T12:30:34.890Z,2.03
2023-05-03T12:33:04.400Z,1.83
2023-05-03T12:35:34.209Z,1.90
2023-05-03T12:38:03.355Z,2.20
2023-05-03T12:40:34.109Z,2.17
2023-05-03T12:43:01.771Z,2.17
2023-05-03T12:45:32.099Z,1.70
2023-05-03T12:48:00.613Z,1.83
2023-05-03T12:50:30.939Z,2.03
2023-05-03T12:55:25.635Z,2.13
2023-05-03T12:58:13.220Z,2.33
2023-05-03T13:00:49.220Z,1.97
2023-05-03T13:03:32.462Z,2.20
2023-05-03T13:06:00.351Z,2.33
2023-05-03T13:08:33.925Z,2.33
2023-05-03T13:11:01.747Z,2.03
2023-05-03T13:13:28.644Z,2.00
2023-05-03T13:15:55.334Z,1.80
2023-05-03T13:18:23.043Z,1.93
2023-05-03T13:20:50.524Z,2.00
2023-05-03T13:23:17.036Z,1.70
2023-05-03T13:25:44.457Z,1.80
2023-05-03T13:28:11.044Z,2.40
2023-05-03T13:30:37.731Z,2.23
2023-05-03T13:33:04.385Z,2.40
2023-05-03T13:35:31.050Z,1.80
2023-05-03T13:37:57.842Z,2.50
2023-05-03T13:40:24.895Z,1.83
2023-05-03T13:42:51.426Z,2.23
2023-05-03T13:45:20.487Z,1.80
2023-05-03T13:48:11.991Z,1.80
2023-05-03T13:50:33.988Z,2.03
2023-05-03T13:53:00.380Z,1.93
2023-05-03T13:55:26.866Z,2.00
2023-05-03T13:57:53.618Z,1.93
2023-05-03T14:00:20.982Z,2.00
2023-05-03T14:02:47.649Z,2.03
2023-05-03T14:05:14.255Z,2.07
2023-05-03T14:07:41.150Z,2.30
2023-05-03T14:10:08.160Z,1.87
2023-05-03T14:12:37.004Z,2.47
2023-05-03T14:15:04.316Z,2.17
2023-05-03T14:17:32.196Z,2.20
2023-05-03T14:19:59.208Z,2.30
2023-05-03T14:22:26.185Z,1.93
2023-05-03T14:24:52.447Z,2.57
2023-05-03T14:27:21.829Z,2.00
2023-05-03T14:29:48.348Z,2.23
2023-05-03T14:32:15.441Z,2.50
2023-05-03T14:34:41.762Z,2.23
2023-05-03T14:37:08.169Z,2.00
2023-05-03T14:39:34.562Z,2.83
2023-05-03T14:42:00.880Z,2.00
2023-05-03T14:44:27.734Z,2.50
2023-05-03T14:46:54.118Z,1.97
2023-05-03T14:49:20.455Z,1.90
2023-05-03T14:51:46.729Z,1.90
2023-05-03T14:54:13.016Z,2.03
2023-05-03T14:56:39.291Z,2.10
2023-05-03T14:59:05.659Z,1.80
2023-05-03T15:01:32.137Z,1.83
2023-05-03T15:03:58.519Z,2.00
2023-05-03T15:06:26.450Z,1.90
2023-05-03T15:08:52.993Z,2.03
2023-05-03T15:11:19.298Z,2.00
2023-05-03T15:13:45.658Z,1.87
2023-05-03T15:16:12.007Z,2.10
2023-05-03T15:18:38.259Z,1.90
2023-05-03T15:21:04.716Z,2.00
2023-05-03T15:23:31.074Z,2.00
2023-05-03T15:25:58.107Z,2.40
2023-05-03T15:28:24.375Z,1.80
2023-05-03T15:30:50.870Z,2.10
2023-05-03T15:33:17.253Z,2.20
2023-05-03T15:35:43.573Z,2.20
2023-05-03T15:38:09.922Z,1.93
2023-05-03T15:40:36.402Z,1.90
2023-05-03T15:43:02.662Z,2.27
2023-05-03T15:45:29.549Z,2.08
2023-05-03T15:47:58.860Z,2.10
2023-05-03T15:50:25.221Z,2.07
2023-05-03T15:52:51.462Z,2.30
2023-05-03T15:55:18.526Z,2.37
2023-05-03T15:57:45.538Z,1.93
2023-05-03T16:00:12.863Z,2.17
2023-05-03T16:02:39.756Z,2.10
2023-05-03T16:05:06.216Z,2.00
2023-05-03T16:07:32.617Z,2.10
2023-05-03T16:09:59.045Z,1.80
2023-05-03T16:12:25.511Z,2.30
2023-05-03T16:14:51.794Z,1.93
2023-05-03T16:17:18.112Z,2.10
2023-05-03T16:19:44.394Z,1.80
2023-05-03T16:22:10.996Z,1.93
2023-05-03T16:24:37.453Z,2.20
2023-05-03T16:27:03.804Z,2.43
2023-05-03T16:29:30.089Z,2.40
2023-05-03T16:31:56.465Z,1.90
2023-05-03T16:34:22.792Z,1.80
2023-05-03T16:36:49.122Z,2.10
2023-05-03T16:39:15.411Z,2.73
2023-05-03T16:41:41.721Z,2.00
2023-05-03T16:44:08.669Z,2.17
2023-05-03T16:46:36.002Z,2.00
2023-05-03T16:49:02.523Z,2.10
2023-05-03T16:51:28.856Z,2.20
2023-05-03T16:53:55.373Z,2.23
2023-05-03T16:56:21.856Z,5.70
2023-05-03T16:58:48.228Z,6.17
2023-05-03T17:01:14.610Z,5.77
2023-05-03T17:03:42.343Z,6.07
2023-05-03T17:06:08.884Z,5.03
2023-05-03T17:08:35.234Z,24.87
2023-05-03T17:11:06.646Z,11.23
2023-05-03T17:13:32.944Z,16.80
2023-05-03T17:15:59.189Z,7.50
2023-05-03T17:18:25.466Z,4.63
2023-05-03T17:20:52.721Z,2.50
2023-05-03T17:23:20.587Z,3.37
2023-05-03T17:25:48.316Z,3.23
2023-05-03T17:28:14.614Z,3.10
2023-05-03T17:30:40.892Z,3.83
2023-05-03T17:33:07.993Z,3.20
2023-05-03T17:35:34.592Z,2.90
2023-05-03T17:38:00.911Z,2.23
2023-05-03T17:40:27.151Z,2.67
2023-05-03T17:42:53.442Z,2.27
2023-05-03T17:45:19.674Z,2.27
2023-05-03T17:47:46.993Z,1.70
2023-05-03T17:50:13.661Z,1.93
2023-05-03T17:52:40.018Z,2.47
2023-05-03T17:55:06.440Z,1.90
2023-05-03T17:57:32.732Z,1.83
2023-05-03T17:59:59.030Z,1.90
2023-05-03T18:02:25.347Z,1.83
2023-05-03T18:04:51.778Z,2.00
2023-05-03T18:07:18.149Z,2.30
2023-05-03T18:09:44.640Z,1.80
2023-05-03T18:12:10.944Z,2.03
2023-05-03T18:14:37.250Z,1.83
2023-05-03T18:17:03.579Z,1.97
2023-05-03T18:19:30.151Z,2.00
2023-05-03T18:21:56.417Z,2.20
2023-05-03T18:24:22.988Z,1.50
2023-05-03T18:26:49.562Z,2.67
2023-05-03T18:29:15.824Z,2.23
2023-05-03T18:31:42.155Z,2.00
2023-05-03T18:34:08.563Z,1.90
2023-05-03T18:36:34.982Z,2.00
2023-05-03T18:39:01.233Z,2.00
2023-05-03T18:41:27.869Z,2.57
2023-05-03T18:43:54.591Z,2.20
2023-05-03T18:46:21.009Z,2.20
2023-05-03T18:48:47.645Z,2.03
2023-05-03T18:51:14.301Z,2.10
2023-05-03T18:53:40.561Z,1.73
2023-05-03T18:56:06.818Z,2.20
2023-05-03T18:58:33.090Z,2.03
2023-05-03T19:01:00.529Z,2.07
2023-05-03T19:03:31.856Z,1.80
2023-05-03T19:06:04.678Z,1.80
2023-05-03T19:08:31.515Z,2.47
2023-05-03T19:10:57.813Z,1.97
2023-05-03T19:13:25.385Z,2.20
2023-05-03T19:15:51.680Z,2.00
2023-05-03T19:18:18.046Z,2.53
2023-05-03T19:20:44.338Z,2.00
2023-05-03T19:23:10.671Z,2.70
2023-05-03T19:25:36.928Z,2.60
2023-05-03T19:28:05.117Z,2.20
2023-05-03T19:30:31.556Z,2.40
2023-05-03T19:32:57.889Z,2.00
2023-05-03T19:35:24.174Z,2.30
2023-05-03T19:37:50.611Z,2.70
2023-05-03T19:40:16.934Z,2.30
2023-05-03T19:42:43.272Z,2.10
2023-05-03T19:45:09.928Z,2.00
2023-05-03T19:47:36.280Z,2.50
2023-05-03T19:50:02.742Z,2.53
2023-05-03T19:52:29.317Z,3.10
2023-05-03T19:54:56.343Z,2.87
2023-05-03T19:57:22.587Z,2.77
2023-05-03T19:59:48.894Z,3.13
2023-05-03T20:02:15.333Z,2.97
2023-05-03T20:04:41.577Z,2.50
2023-05-03T20:07:08.148Z,3.27
2023-05-03T20:09:34.385Z,2.50
2023-05-03T20:12:02.115Z,2.60
2023-05-03T20:14:28.484Z,2.87
2023-05-03T20:16:54.786Z,2.97
2023-05-03T20:19:23.310Z,3.10
2023-05-03T20:21:49.562Z,2.53
2023-05-03T20:24:15.987Z,2.40
2023-05-03T20:26:42.532Z,2.90
2023-05-03T20:29:08.806Z,2.90
2023-05-03T20:31:35.312Z,2.90
2023-05-03T20:34:01.798Z,2.57
2023-05-03T20:36:28.140Z,3.23
2023-05-03T20:38:54.883Z,3.30
2023-05-03T20:41:21.690Z,2.57
2023-05-03T20:43:48.007Z,3.17
2023-05-03T20:46:14.400Z,3.53
2023-05-03T20:48:41.014Z,2.80
2023-05-03T20:51:10.265Z,3.80
2023-05-03T20:53:36.628Z,3.80
2023-05-03T20:56:06.239Z,3.17
2023-05-03T20:58:32.773Z,3.73
2023-05-03T21:01:00.402Z,3.23
2023-05-03T21:03:26.951Z,3.60
2023-05-03T21:05:53.608Z,4.20
2023-05-03T21:08:19.905Z,3.50
2023-05-03T21:10:46.528Z,3.83
2023-05-03T21:13:12.954Z,3.00
2023-05-03T21:15:39.212Z,3.20
2023-05-03T21:18:06.822Z,3.60
2023-05-03T21:20:33.567Z,3.37
2023-05-03T21:22:59.847Z,3.07
2023-05-03T21:25:26.324Z,3.30
2023-05-03T21:27:53.210Z,2.80
2023-05-03T21:30:20.574Z,3.33
2023-05-03T21:32:49.708Z,3.33
2023-05-03T21:35:16.674Z,3.00
2023-05-03T21:37:43.508Z,3.50
2023-05-03T21:40:10.318Z,3.10
2023-05-03T21:42:36.813Z,3.47
2023-05-03T21:45:03.099Z,2.93
2023-05-03T21:47:29.610Z,3.20
2023-05-03T21:49:56.826Z,3.27
2023-05-03T21:52:23.269Z,3.17
2023-05-03T21:54:49.689Z,3.03
2023-05-03T21:57:15.976Z,3.80
2023-05-03T21:59:42.789Z,3.07
2023-05-03T22:02:09.343Z,3.23
2023-05-03T22:04:35.655Z,3.40
2023-05-03T22:07:03.736Z,3.30
2023-05-03T22:09:30.524Z,3.30
2023-05-03T22:11:56.809Z,3.60
2023-05-03T22:14:23.368Z,3.90
2023-05-03T22:16:49.606Z,3.70
2023-05-03T22:19:15.914Z,3.93
2023-05-03T22:21:42.421Z,3.93
2023-05-03T22:24:08.735Z,3.73
2023-05-03T22:26:35.243Z,3.43
2023-05-03T22:29:01.735Z,3.90
2023-05-03T22:31:30.193Z,3.73
2023-05-03T22:33:56.600Z,4.40
2023-05-03T22:36:22.904Z,4.03
2023-05-03T22:39:00.474Z,3.80
2023-05-03T22:41:27.910Z,4.07
2023-05-03T22:43:54.169Z,4.03
2023-05-03T22:46:21.680Z,4.33
2023-05-03T22:48:48.028Z,3.87
2023-05-03T22:51:14.316Z,3.93
2023-05-03T22:53:41.110Z,4.07
2023-05-03T22:56:07.505Z,3.77
2023-05-03T22:58:34.382Z,4.00
2023-05-03T23:01:00.754Z,3.43
2023-05-03T23:03:27.467Z,4.47
2023-05-03T23:05:54.392Z,3.80
2023-05-03T23:08:25.613Z,3.90
2023-05-03T23:10:54.128Z,3.83
2023-05-03T23:13:20.641Z,3.37
2023-05-03T23:15:47.010Z,3.50
2023-05-03T23:18:13.424Z,3.90
2023-05-03T23:20:39.748Z,3.50
2023-05-03T23:23:06.051Z,4.03
2023-05-03T23:25:32.296Z,3.60
2023-05-03T23:27:58.594Z,3.20
2023-05-03T23:30:25.834Z,3.40
2023-05-03T23:32:52.951Z,3.00
2023-05-03T23:35:20.749Z,3.57
2023-05-03T23:37:47.049Z,3.90
2023-05-03T23:40:13.294Z,3.17
2023-05-03T23:42:41.252Z,3.50
2023-05-03T23:45:08.628Z,3.67
2023-05-03T23:47:35.012Z,3.70
2023-05-03T23:50:01.480Z,3.27
2023-05-03T23:52:27.861Z,3.80
2023-05-03T23:54:54.112Z,3.33
2023-05-03T23:57:21.163Z,3.57
2023-05-03T23:59:47.432Z,2.90
